Time;durP1;ratioP1;P1;durP2;ratioP2;P2;SDS_P1;SDS_P2;PMS_P1;PMS_P2;Temp;Humidity;BMP_temperature;BMP_pressure;BME280_temperature;BME280_humidity;BME280_pressure;Samples;Min_cycle;Max_cycle;Signal;HPM_P1;HPM_P2
2023/01/01 00:00:38;;;;;;;;;;;;;;;20.34;52.07;95555.09;4994439;28;9139;-66
2023/01/01 00:03:05;;;;;;;;;;;;;;;20.34;52.22;95552.34;5010760;28;8033;-66
2023/01/01 00:05:32;;;;;;;;;;;;;;;20.32;52.05;95552.78;4993850;28;10429;-66
2023/01/01 00:07:58;;;;;;;;;;;;;;;20.31;52.09;95542.91;5011337;28;9540;-66
2023/01/01 00:10:30;;;;;;;;;;;;;;;20.26;52.29;95542.59;5009889;28;7531;-66
2023/01/01 00:12:58;;;;;;;;;;;;;;;20.24;52.45;95541.03;5016674;28;7577;-66
2023/01/01 00:15:25;;;;;;;;;;;;;;;20.24;52.35;95538.28;5011967;28;7527;-66
2023/01/01 00:17:52;;;;;;;;;;;;;;;20.27;52.25;95536.63;5010635;28;7542;-67
2023/01/01 00:20:19;;;;;;;;;;;;;;;20.28;52.15;95535.44;5010723;28;9012;-67
2023/01/01 00:22:46;;;;;;;;;;;;;;;20.29;52.12;95531.47;5010900;28;9260;-67
2023/01/01 00:25:21;;;;;;;;;;;;;;;20.27;52.13;95522.03;5011020;28;10440;-66
2023/01/01 00:27:48;;;;;;;;;;;;;;;20.23;52.39;95517.31;5009270;28;8800;-66
2023/01/01 00:30:15;;;;;;;;;;;;;;;20.23;52.14;95527.63;5012367;28;7539;-66
2023/01/01 00:32:42;;;;;;;;;;;;;;;20.28;52.02;95529.91;5010708;28;9506;-66
2023/01/01 00:35:21;;;;;;;;;;;;;;;20.26;52.23;95532.31;5010548;28;10619;-67
2023/01/01 00:37:48;;;;;;;;;;;;;;;20.23;52.08;95517.31;5011195;28;7538;-66
2023/01/01 00:40:14;;;;;;;;;;;;;;;20.27;51.85;95516.50;5010379;28;7554;-67
2023/01/01 00:42:41;;;;;;;;;;;;;;;20.28;51.96;95516.06;5010976;28;7775;-66
2023/01/01 00:45:08;;;;;;;;;;;;;;;20.27;51.97;95522.03;5008606;28;7719;-67
2023/01/01 00:47:34;;;;;;;;;;;;;;;20.28;51.91;95516.06;5009773;28;10211;-66
2023/01/01 00:50:01;;;;;;;;;;;;;;;20.27;51.79;95517.25;5010298;28;7843;-66
2023/01/01 00:52:28;;;;;;;;;;;;;;;20.24;52.00;95523.66;5010403;28;10061;-67
2023/01/01 00:54:55;;;;;;;;;;;;;;;20.25;51.93;95511.38;5008166;28;10095;-66
2023/01/01 00:57:21;;;;;;;;;;;;;;;20.20;52.17;95515.44;4993882;28;7553;-66
2023/01/01 00:59:48;;;;;;;;;;;;;;;20.21;52.10;95507.91;5009299;28;7620;-66
2023/01/01 01:02:15;;;;;;;;;;;;;;;20.19;52.10;95502.00;5009027;28;7710;-67
2023/01/01 01:04:42;;;;;;;;;;;;;;;20.14;52.26;95508.81;5008755;28;7605;-66
2023/01/01 01:07:09;;;;;;;;;;;;;;;20.11;52.36;95506.91;5010150;28;7531;-66
2023/01/01 01:09:35;;;;;;;;;;;;;;;20.12;52.25;95499.38;5011999;28;7535;-66
2023/01/01 01:12:02;;;;;;;;;;;;;;;20.11;52.39;95504.16;5008998;28;7539;-66
2023/01/01 01:14:44;;;;;;;;;;;;;;;20.11;52.37;95497.81;5009980;28;7523;-66
2023/01/01 01:17:11;;;;;;;;;;;;;;;;;;5009082;28;7546;-67
2023/01/01 01:19:37;;;;;;;;;;;;;;;20.11;52.16;95493.06;5009143;28;10845;-66
2023/01/01 01:22:04;;;;;;;;;;;;;;;20.14;52.13;95491.44;5009647;28;7558;-67
2023/01/01 01:24:31;;;;;;;;;;;;;;;20.13;52.26;95487.88;4987735;28;7539;-66
2023/01/01 01:26:57;;;;;;;;;;;;;;;20.13;52.03;95484.34;5009638;28;9452;-67
2023/01/01 01:29:24;;;;;;;;;;;;;;;20.13;52.12;95476.03;5010322;28;7904;-67
2023/01/01 01:31:55;;;;;;;;;;;;;;;20.13;52.05;95482.34;5009736;28;9154;-66
2023/01/01 01:34:22;;;;;;;;;;;;;;;20.04;52.38;95482.91;5009056;28;9180;-67
2023/01/01 01:36:54;;;;;;;;;;;;;;;20.06;52.24;95474.19;5008221;28;8537;-67
2023/01/01 01:39:21;;;;;;;;;;;;;;;20.07;52.02;95476.53;5011452;28;7633;-66
2023/01/01 01:41:47;;;;;;;;;;;;;;;20.11;52.17;95473.69;5008838;28;7519;-66
2023/01/01 01:44:33;;;;;;;;;;;;;;;20.10;51.97;95477.66;5009555;28;7531;-66
2023/01/01 01:47:01;;;;;;;;;;;;;;;20.09;52.10;95492.72;4986851;28;8013;-66
2023/01/01 01:49:29;;;;;;;;;;;;;;;20.05;52.21;95487.25;4996052;28;8010;-66
2023/01/01 01:51:58;;;;;;;;;;;;;;;20.08;51.97;95483.63;5005511;28;7527;-66
2023/01/01 01:54:26;;;;;;;;;;;;;;;20.06;52.12;95483.28;4993052;28;7597;-66
2023/01/01 01:56:56;;;;;;;;;;;;;;;20.08;51.77;95488.38;5007151;28;7626;-66
2023/01/01 01:59:26;;;;;;;;;;;;;;;20.07;51.91;95492.34;5007742;28;8003;-67
2023/01/01 02:01:52;;;;;;;;;;;;;;;20.04;52.09;95473.84;5006991;28;10194;-67
2023/01/01 02:04:19;;;;;;;;;;;;;;;19.96;52.03;95473.19;5003169;28;7558;-67
2023/01/01 02:06:47;;;;;;;;;;;;;;;19.94;52.14;95470.06;5003567;28;7626;-67
2023/01/01 02:09:13;;;;;;;;;;;;;;;20.00;51.80;95467.59;5006634;28;10326;-71
2023/01/01 02:11:40;;;;;;;;;;;;;;;19.98;52.25;95470.78;5006313;28;7550;-72
2023/01/01 02:14:07;;;;;;;;;;;;;;;20.02;52.59;95465.19;5009116;28;7543;-72
2023/01/01 02:16:43;;;;;;;;;;;;;;;20.11;49.19;95461.81;5005797;28;8235;-77
2023/01/01 02:19:10;;;;;;;;;;;;;;;;;;5002007;28;7570;-74
2023/01/01 02:21:41;;;;;;;;;;;;;;;20.09;48.35;95459.50;5006780;28;7641;-64
2023/01/01 02:24:08;;;;;;;;;;;;;;;20.18;47.90;95464.44;4978362;28;7594;-62
2023/01/01 02:26:41;;;;;;;;;;;;;;;20.32;47.42;95457.84;5006589;28;7692;-79
2023/01/01 02:29:23;;;;;;;;;;;;;;;20.30;47.42;95463.81;5000989;28;8831;-78
2023/01/01 02:31:57;;;;;;;;;;;;;;;20.42;46.95;95456.81;4999178;28;7578;-77
2023/01/01 02:34:26;;;;;;;;;;;;;;;20.49;46.61;95461.44;5002043;28;8033;-78
2023/01/01 02:36:55;;;;;;;;;;;;;;;20.42;46.64;95456.81;4989927;28;8093;-79
2023/01/01 02:39:25;;;;;;;;;;;;;;;20.41;46.71;95463.56;4985792;28;8145;-78
2023/01/01 02:41:53;;;;;;;;;;;;;;;20.41;46.63;95460.81;4981464;28;7650;-79
2023/01/01 02:44:21;;;;;;;;;;;;;;;20.36;46.71;95464.84;4981390;28;9416;-79
2023/01/01 02:46:48;;;;;;;;;;;;;;;20.42;46.50;95461.59;4984748;28;9362;-80
2023/01/01 02:49:15;;;;;;;;;;;;;;;20.38;46.42;95453.38;4986941;28;7551;-80
2023/01/01 02:51:42;;;;;;;;;;;;;;;20.36;46.46;95461.31;4989089;28;7539;-80
2023/01/01 02:54:08;;;;;;;;;;;;;;;20.40;46.22;95451.72;4986979;28;9843;-80
2023/01/01 02:56:35;;;;;;;;;;;;;;;20.36;46.30;95455.78;4992152;28;9035;-79
2023/01/01 03:02:09;;;;;;;;;;;;;;;20.32;46.34;95466.13;4987420;28;7539;-79
2023/01/01 03:05:01;;;;;;;;;;;;;;;20.29;46.42;95455.94;4984517;28;7548;-79
2023/01/01 03:07:34;;;;;;;;;;;;;;;20.28;46.41;95460.69;4943297;28;7575;-79
2023/01/01 03:10:04;;;;;;;;;;;;;;;20.22;46.45;95448.56;4943356;28;7573;-79
2023/01/01 03:12:38;;;;;;;;;;;;;;;20.27;46.42;95452.81;4940162;29;9914;-79
2023/01/01 03:15:08;;;;;;;;;;;;;;;20.26;46.40;95448.47;4945769;29;9730;-79
2023/01/01 03:17:41;;;;;;;;;;;;;;;20.22;46.42;95441.03;4944966;28;9828;-79
2023/01/01 03:20:12;;;;;;;;;;;;;;;20.26;46.32;95437.41;4950489;29;7551;-79
2023/01/01 03:22:40;;;;;;;;;;;;;;;20.22;46.39;95431.94;4946122;29;10058;-79
2023/01/01 03:25:13;;;;;;;;;;;;;;;20.17;46.37;95438.00;4948859;28;9303;-79
2023/01/01 03:27:45;;;;;;;;;;;;;;;20.15;46.49;95435.63;4949386;28;10066;-79
2023/01/01 03:30:13;;;;;;;;;;;;;;;20.17;46.33;95429.69;4950183;28;9215;-79
2023/01/01 03:33:02;;;;;;;;;;;;;;;20.19;46.16;95428.06;4948721;28;9759;-79
2023/01/01 03:35:40;;;;;;;;;;;;;;;20.17;46.38;95429.69;4956029;28;10042;-80
2023/01/01 03:38:25;;;;;;;;;;;;;;;20.18;46.21;95445.06;4970687;28;7527;-80
2023/01/01 03:40:55;;;;;;;;;;;;;;;20.14;46.31;95461.75;4970356;28;7614;-79
2023/01/01 03:43:37;;;;;;;;;;;;;;;20.20;46.10;95462.03;4970662;28;9419;-80
2023/01/01 03:46:05;;;;;;;;;;;;;;;20.14;46.19;95463.75;4988559;28;10015;-79
2023/01/01 03:48:54;;;;;;;;;;;;;;;20.13;46.31;95449.13;4989189;28;8724;-79
2023/01/01 03:51:46;;;;;;;;;;;;;;;20.08;46.20;95447.66;4991369;28;7588;-79
2023/01/01 03:54:29;;;;;;;;;;;;;;;20.09;46.29;95442.88;4986762;28;7887;-79
2023/01/01 03:57:04;;;;;;;;;;;;;;;20.07;46.43;95428.69;4989584;28;8042;-79
2023/01/01 03:59:38;;;;;;;;;;;;;;;20.08;46.40;95419.19;4986362;28;8080;-79
2023/01/01 04:02:07;;;;;;;;;;;;;;;20.06;46.30;95416.06;4993467;28;7547;-79
2023/01/01 04:04:34;;;;;;;;;;;;;;;20.04;46.45;95419.25;4991316;28;9238;-79
2023/01/01 04:07:01;;;;;;;;;;;;;;;20.05;46.31;95412.53;4991217;28;7588;-79
2023/01/01 04:09:42;;;;;;;;;;;;;;;19.99;46.50;95422.53;4985472;28;8657;-79
2023/01/01 04:12:09;;;;;;;;;;;;;;;19.96;46.36;95420.63;4985783;28;11027;-79
2023/01/01 04:14:38;;;;;;;;;;;;;;;20.01;46.47;95413.81;4987388;28;7535;-80
2023/01/01 04:17:06;;;;;;;;;;;;;;;19.96;46.44;95404.00;4986717;28;7559;-79
2023/01/01 04:19:32;;;;;;;;;;;;;;;19.97;46.50;95411.09;4989593;28;7551;-79
2023/01/01 04:22:00;;;;;;;;;;;;;;;19.99;46.53;95414.25;4990328;28;10003;-80
2023/01/01 04:24:26;;;;;;;;;;;;;;;20.00;46.61;95403.94;4990310;28;9148;-80
2023/01/01 04:26:53;;;;;;;;;;;;;;;19.95;46.38;95401.69;4986964;28;8347;-79
2023/01/01 04:29:21;;;;;;;;;;;;;;;19.93;46.32;95391.81;4992528;28;7535;-79
2023/01/01 04:31:48;;;;;;;;;;;;;;;19.96;46.50;95386.66;4988495;28;10855;-79
2023/01/01 04:34:15;;;;;;;;;;;;;;;19.95;46.60;95382.31;4972972;28;9485;-79
2023/01/01 04:36:42;;;;;;;;;;;;;;;19.95;46.42;95391.38;4982219;28;7843;-79
2023/01/01 04:39:11;;;;;;;;;;;;;;;19.93;46.42;95402.09;4986720;28;8731;-79
2023/01/01 04:41:37;;;;;;;;;;;;;;;19.95;46.45;95401.69;4990617;28;10636;-79
2023/01/01 04:44:04;;;;;;;;;;;;;;;19.91;46.32;95393.47;4992606;28;7638;-79
2023/01/01 04:46:31;;;;;;;;;;;;;;;19.91;46.44;95388.69;4990319;28;8500;-79
2023/01/01 04:48:58;;;;;;;;;;;;;;;19.93;46.38;95391.03;4973038;28;9883;-80
2023/01/01 04:51:24;;;;;;;;;;;;;;;19.91;46.41;95397.00;4990020;28;7587;-80
2023/01/01 04:53:51;;;;;;;;;;;;;;;19.91;46.34;95401.75;4990702;28;7810;-79
2023/01/01 04:56:19;;;;;;;;;;;;;;;19.92;46.43;95401.31;4992526;28;7539;-80
2023/01/01 04:58:46;;;;;;;;;;;;;;;19.95;46.32;95387.84;4987789;28;7737;-80
2023/01/01 05:01:20;;;;;;;;;;;;;;;19.93;46.16;95385.50;4990876;28;10815;-79
2023/01/01 05:03:47;;;;;;;;;;;;;;;19.92;46.11;95373.66;4989511;28;11933;-80
2023/01/01 05:06:14;;;;;;;;;;;;;;;19.92;46.37;95383.94;4990258;28;7543;-79
2023/01/01 05:08:42;;;;;;;;;;;;;;;19.90;46.28;95391.91;4990182;28;11276;-79
2023/01/01 05:11:15;;;;;;;;;;;;;;;19.88;46.37;95402.59;4974377;28;7539;-80
2023/01/01 05:13:43;;;;;;;;;;;;;;;19.87;46.29;95415.66;4990025;28;7772;-80
2023/01/01 05:16:11;;;;;;;;;;;;;;;19.87;46.30;95421.19;4991406;28;9144;-80
2023/01/01 05:18:39;;;;;;;;;;;;;;;19.88;46.34;95419.97;4990128;28;7742;-80
2023/01/01 05:21:09;;;;;;;;;;;;;;;19.86;46.15;95405.81;4989744;28;7781;-80
2023/01/01 05:23:36;;;;;;;;;;;;;;;19.84;46.31;95407.38;4990137;28;7531;-80
2023/01/01 05:26:09;;;;;;;;;;;;;;;19.87;46.09;95398.28;4991271;28;7905;-80
2023/01/01 05:28:36;;;;;;;;;;;;;;;19.85;46.31;95401.47;4990286;28;9638;-79
2023/01/01 05:31:07;;;;;;;;;;;;;;;19.84;46.23;95393.56;4971827;28;7779;-80
2023/01/01 05:33:34;;;;;;;;;;;;;;;19.84;46.45;95399.88;4988365;28;10466;-80
2023/01/01 05:36:01;;;;;;;;;;;;;;;19.86;46.27;95408.56;4996460;28;11114;-80
2023/01/01 05:38:28;;;;;;;;;;;;;;;19.86;46.15;95405.00;5006813;28;10180;-80
2023/01/01 05:40:55;;;;;;;;;;;;;;;19.84;46.22;95383.28;5008403;28;7535;-79
2023/01/01 05:43:22;;;;;;;;;;;;;;;19.84;46.36;95374.97;5008375;28;10690;-80
2023/01/01 05:45:58;;;;;;;;;;;;;;;19.85;46.18;95390.41;5008799;28;8314;-79
2023/01/01 05:48:24;;;;;;;;;;;;;;;19.84;46.18;95413.72;5009459;28;10617;-80
2023/01/01 05:50:51;;;;;;;;;;;;;;;19.83;46.43;95414.16;5008083;28;9842;-80
2023/01/01 05:53:18;;;;;;;;;;;;;;;19.82;46.25;95391.22;5011179;28;7559;-80
2023/01/01 05:55:51;;;;;;;;;;;;;;;19.81;46.06;95386.13;5007432;28;7646;-80
2023/01/01 05:58:17;;;;;;;;;;;;;;;19.80;46.21;95385.31;5003579;28;7638;-80
2023/01/01 06:00:44;;;;;;;;;;;;;;;19.80;46.14;95392.84;5007028;28;9769;-80
2023/01/01 06:03:11;;;;;;;;;;;;;;;19.83;46.19;95392.00;5008140;28;9561;-80
2023/01/01 06:05:38;;;;;;;;;;;;;;;19.83;46.11;95392.00;5008196;28;7589;-79
2023/01/01 06:08:04;;;;;;;;;;;;;;;19.80;46.13;95382.56;5008690;28;7707;-79
2023/01/01 06:10:31;;;;;;;;;;;;;;;19.78;46.20;95369.16;5008221;28;9466;-79
2023/01/01 06:12:58;;;;;;;;;;;;;;;19.82;46.09;95376.63;5009037;28;7621;-80
2023/01/01 06:15:25;;;;;;;;;;;;;;;19.81;46.10;95384.13;5008371;28;10390;-80
2023/01/01 06:17:51;;;;;;;;;;;;;;;19.81;46.06;95413.78;5008105;28;7555;-80
2023/01/01 06:20:18;;;;;;;;;;;;;;;19.82;46.11;95420.88;5008798;28;8062;-80
2023/01/01 06:22:45;;;;;;;;;;;;;;;19.82;46.31;95421.66;5005931;28;9619;-79
2023/01/01 06:25:12;;;;;;;;;;;;;;;19.80;46.29;95429.59;5007985;28;10251;-80
2023/01/01 06:27:39;;;;;;;;;;;;;;;19.82;46.11;95441.00;5007964;28;7527;-80
2023/01/01 06:30:06;;;;;;;;;;;;;;;19.83;46.17;95448.13;4990176;28;10910;-80
2023/01/01 06:32:33;;;;;;;;;;;;;;;19.81;46.16;95442.22;5008176;28;9660;-80
2023/01/01 06:35:00;;;;;;;;;;;;;;;19.80;46.05;95431.59;5009013;28;7909;-79
2023/01/01 06:37:27;;;;;;;;;;;;;;;19.80;46.10;95423.28;5003876;28;10970;-80
2023/01/01 06:39:53;;;;;;;;;;;;;;;19.80;46.16;95428.81;5008170;28;10502;-80
2023/01/01 06:42:20;;;;;;;;;;;;;;;19.80;46.29;95429.59;5008486;28;7792;-80
2023/01/01 06:44:47;;;;;;;;;;;;;;;19.78;46.20;95426.50;5007974;28;7668;-79
2023/01/01 06:47:13;;;;;;;;;;;;;;;19.76;46.15;95426.13;5009433;28;7550;-80
2023/01/01 06:49:40;;;;;;;;;;;;;;;19.74;46.38;95432.09;5007670;28;7610;-79
2023/01/01 06:52:08;;;;;;;;;;;;;;;19.75;46.31;95432.84;5009278;28;8211;-80
2023/01/01 06:54:35;;;;;;;;;;;;;;;19.75;46.04;95425.31;5006944;28;8191;-80
2023/01/01 06:57:02;;;;;;;;;;;;;;;19.75;46.13;95424.56;5012760;28;10253;-80
2023/01/01 06:59:29;;;;;;;;;;;;;;;19.77;46.22;95428.47;5013980;28;7597;-79
2023/01/01 07:01:55;;;;;;;;;;;;;;;19.78;46.20;95424.50;5012302;28;8376;-80
2023/01/01 07:04:22;;;;;;;;;;;;;;;19.78;45.56;95416.19;5012362;28;10321;-80
2023/01/01 07:06:49;;;;;;;;;;;;;;;19.76;45.94;95415.06;5012718;28;7597;-80
2023/01/01 07:09:15;;;;;;;;;;;;;;;19.76;46.00;95415.81;5011874;28;7685;-80
2023/01/01 07:11:42;;;;;;;;;;;;;;;19.75;45.99;95408.72;5012169;28;8062;-80
2023/01/01 07:14:09;;;;;;;;;;;;;;;19.73;46.02;95410.38;5007994;28;8071;-80
2023/01/01 07:16:35;;;;;;;;;;;;;;;19.73;45.94;95418.66;5011358;28;9262;-80
2023/01/01 07:19:02;;;;;;;;;;;;;;;19.73;46.08;95430.53;5011701;28;7648;-80
2023/01/01 07:21:39;;;;;;;;;;;;;;;19.72;45.86;95431.72;5011110;28;7830;-80
2023/01/01 07:24:09;;;;;;;;;;;;;;;19.73;45.96;95413.94;5011546;28;7566;-81
2023/01/01 07:26:35;;;;;;;;;;;;;;;19.72;45.88;95392.22;5010955;28;10884;-80
2023/01/01 07:29:02;;;;;;;;;;;;;;;19.72;45.57;95406.03;5012084;28;8127;-80
2023/01/01 07:31:37;;;;;;;;;;;;;;;19.72;45.77;95415.13;5011558;28;11218;-80
2023/01/01 07:34:05;;;;;;;;;;;;;;;19.72;45.60;95428.16;5012741;28;7978;-80
2023/01/01 07:36:31;;;;;;;;;;;;;;;19.72;45.76;95428.97;5009986;28;7722;-80
2023/01/01 07:38:58;;;;;;;;;;;;;;;19.69;45.98;95415.22;5010542;28;8296;-80
2023/01/01 07:41:25;;;;;;;;;;;;;;;19.68;46.01;95397.03;5013138;28;7546;-80
2023/01/01 07:43:51;;;;;;;;;;;;;;;19.67;45.98;95401.78;5011723;28;7635;-80
2023/01/01 07:46:18;;;;;;;;;;;;;;;19.67;46.01;95398.25;5011072;28;11269;-80
2023/01/01 07:48:45;;;;;;;;;;;;;;;19.68;45.76;95408.88;5010550;28;7545;-80
2023/01/01 07:51:12;;;;;;;;;;;;;;;19.67;45.94;95412.84;5010563;28;10709;-80
2023/01/01 07:53:38;;;;;;;;;;;;;;;19.67;45.90;95404.53;5011526;28;7523;-80
2023/01/01 07:56:05;;;;;;;;;;;;;;;19.67;45.84;95401.78;5012247;28;8021;-80
2023/01/01 07:58:32;;;;;;;;;;;;;;;19.67;45.91;95392.72;5010143;28;7689;-80
2023/01/01 08:00:59;;;;;;;;;;;;;;;19.67;45.99;95401.78;5010733;28;11061;-80
2023/01/01 08:03:26;;;;;;;;;;;;;;;19.66;46.07;95405.75;5010752;28;8808;-80
2023/01/01 08:05:52;;;;;;;;;;;;;;;19.65;46.09;95397.88;5009856;28;7821;-80
2023/01/01 08:08:19;;;;;;;;;;;;;;;19.67;46.08;95406.53;5007203;28;7539;-80
2023/01/01 08:10:46;;;;;;;;;;;;;;;19.64;46.05;95410.94;5009557;28;11751;-80
2023/01/01 08:13:12;;;;;;;;;;;;;;;19.65;46.15;95415.28;5010668;28;7639;-80
2023/01/01 08:15:39;;;;;;;;;;;;;;;19.63;46.07;95414.91;5006124;28;10198;-80
2023/01/01 08:18:06;;;;;;;;;;;;;;;19.64;46.16;95421.22;5009430;28;10784;-80
2023/01/01 08:20:33;;;;;;;;;;;;;;;19.64;46.13;95421.22;5011890;28;7538;-81
2023/01/01 08:23:01;;;;;;;;;;;;;;;19.65;46.16;95414.47;5010268;28;11452;-80
2023/01/01 08:25:33;;;;;;;;;;;;;;;19.63;46.08;95412.16;5007497;28;7535;-80
2023/01/01 08:28:00;;;;;;;;;;;;;;;19.63;46.13;95423.22;5005935;28;9696;-70
2023/01/01 08:30:27;;;;;;;;;;;;;;;19.66;46.67;95416.03;4999149;28;7709;-71
2023/01/01 08:32:54;;;;;;;;;;;;;;;19.65;46.65;95422.78;4997702;28;10052;-72
2023/01/01 08:35:20;;;;;;;;;;;;;;;19.65;46.40;95422.78;5007039;28;7547;-72
2023/01/01 08:37:47;;;;;;;;;;;;;;;19.62;46.28;95416.13;5008168;28;10855;-72
2023/01/01 08:40:14;;;;;;;;;;;;;;;19.61;46.37;95418.13;5010013;28;10738;-72
2023/01/01 08:42:40;;;;;;;;;;;;;;;19.61;46.22;95422.84;5010712;28;8354;-71
2023/01/01 08:45:08;;;;;;;;;;;;;;;19.60;46.11;95410.22;5009374;28;10940;-72
2023/01/01 08:47:35;;;;;;;;;;;;;;;19.61;45.95;95417.31;5009057;28;7545;-72
2023/01/01 08:50:02;;;;;;;;;;;;;;;19.59;45.85;95428.00;5002797;28;10020;-72
2023/01/01 08:52:28;;;;;;;;;;;;;;;19.59;45.57;95425.25;5006588;28;8007;-72
2023/01/01 08:54:55;;;;;;;;;;;;;;;19.59;45.45;95434.34;5007390;28;7641;-71
2023/01/01 08:57:22;;;;;;;;;;;;;;;19.59;45.46;95423.28;5005347;28;10667;-71
2023/01/01 08:59:48;;;;;;;;;;;;;;;19.59;45.35;95426.03;5009085;28;9486;-72
2023/01/01 09:02:15;;;;;;;;;;;;;;;19.59;45.46;95420.50;5010870;28;7581;-71
2023/01/01 09:04:42;;;;;;;;;;;;;;;19.58;45.32;95418.94;5007052;28;7564;-71
2023/01/01 09:07:09;;;;;;;;;;;;;;;19.60;45.40;95415.75;5009215;28;7631;-71
2023/01/01 09:09:35;;;;;;;;;;;;;;;19.59;45.25;95422.47;5009376;28;9105;-70
2023/01/01 09:12:07;;;;;;;;;;;;;;;19.60;45.21;95432.34;5005651;28;9375;-71
2023/01/01 09:14:34;;;;;;;;;;;;;;;19.59;45.20;95428.81;5008392;28;7563;-71
2023/01/01 09:17:00;;;;;;;;;;;;;;;19.59;45.11;95426.03;5007088;28;10080;-71
2023/01/01 09:19:27;;;;;;;;;;;;;;;19.58;45.16;95424.47;4987840;28;7687;-71
2023/01/01 09:21:54;;;;;;;;;;;;;;;19.58;45.04;95438.31;5009165;28;7961;-71
2023/01/01 09:24:21;;;;;;;;;;;;;;;19.58;44.88;95441.06;5006827;28;9518;-71
2023/01/01 09:26:47;;;;;;;;;;;;;;;19.57;44.95;95439.50;5003354;28;7895;-71
2023/01/01 09:29:17;;;;;;;;;;;;;;;19.57;45.01;95450.56;5008617;28;7550;-71
2023/01/01 09:31:44;;;;;;;;;;;;;;;19.57;45.21;95452.56;5004326;28;9537;-69
2023/01/01 09:34:11;;;;;;;;;;;;;;;19.55;44.99;95450.22;5009221;28;9536;-70
2023/01/01 09:36:38;;;;;;;;;;;;;;;19.53;45.01;95452.63;5004345;28;8083;-70
2023/01/01 09:39:05;;;;;;;;;;;;;;;19.53;44.77;95452.63;5006778;28;7741;-69
2023/01/01 09:41:41;;;;;;;;;;;;;;;19.52;44.83;95445.53;4991571;28;7554;-69
2023/01/01 09:44:23;;;;;;;;;;;;;;;19.53;45.09;95444.34;5007623;28;8210;-71
2023/01/01 09:46:51;;;;;;;;;;;;;;;19.52;44.98;95434.47;5010041;28;7542;-70
2023/01/01 09:49:30;;;;;;;;;;;;;;;19.54;45.13;95459.69;5006235;28;7531;-70
2023/01/01 09:52:00;;;;;;;;;;;;;;;19.51;45.39;95457.00;4988849;28;7554;-70
2023/01/01 09:54:28;;;;;;;;;;;;;;;19.50;45.48;95450.72;5007229;28;7558;-70
2023/01/01 09:56:57;;;;;;;;;;;;;;;19.51;45.48;95454.25;5007734;28;7709;-71
2023/01/01 09:59:24;;;;;;;;;;;;;;;19.49;45.47;95446.38;5008954;28;8392;-67
2023/01/01 10:01:53;;;;;;;;;;;;;;;19.48;46.03;95442.03;5006217;28;9495;-64
2023/01/01 10:04:20;;;;;;;;;;;;;;;19.64;45.79;95446.91;5008468;28;7661;-67
2023/01/01 10:07:00;;;;;;;;;;;;;;;19.61;46.34;95443.00;5007700;28;7542;-63
2023/01/01 10:09:50;;;;;;;;;;;;;;;19.51;47.52;95443.97;5006240;28;7818;-66
2023/01/01 10:12:16;;;;;;;;;;;;;;;19.46;48.15;95433.38;4996138;28;7559;-66
2023/01/01 10:14:45;;;;;;;;;;;;;;;19.75;41.50;95433.63;5007664;28;8003;-68
2023/01/01 10:17:18;;;;;;;;;;;;;;;19.83;39.23;95425.97;5002278;28;7971;-66
2023/01/01 10:19:57;;;;;;;;;;;;;;;19.90;40.28;95425.88;5004230;28;7554;-64
2023/01/01 10:22:29;;;;;;;;;;;;;;;20.01;40.47;95419.34;4986232;28;10370;-63
2023/01/01 10:25:16;;;;;;;;;;;;;;;20.09;41.33;95417.97;5006586;28;7541;-64
2023/01/01 10:27:49;;;;;;;;;;;;;;;19.94;42.66;95434.09;5006225;28;8169;-63
2023/01/01 10:30:25;;;;;;;;;;;;;;;19.77;43.86;95427.69;5007419;28;8938;-63
2023/01/01 10:32:54;;;;;;;;;;;;;;;19.66;44.67;95427.09;5006266;28;7527;-65
2023/01/01 10:35:22;;;;;;;;;;;;;;;19.51;45.54;95427.38;5005249;28;9522;-62
2023/01/01 10:37:57;;;;;;;;;;;;;;;19.49;45.83;95424.25;5005192;28;7566;-62
2023/01/01 10:40:25;;;;;;;;;;;;;;;19.46;46.19;95422.31;5005455;28;7535;-63
2023/01/01 10:42:56;;;;;;;;;;;;;;;19.45;46.35;95426.28;5007814;28;7545;-62
2023/01/01 10:45:28;;;;;;;;;;;;;;;19.45;46.52;95435.38;5003344;28;8053;-63
2023/01/01 10:48:15;;;;;;;;;;;;;;;19.76;45.84;95442.72;5006034;28;7539;-63
2023/01/01 10:50:42;;;;;;;;;;;;;;;19.90;45.96;95436.94;5006077;28;7723;-64
2023/01/01 10:53:27;;;;;;;;;;;;;;;19.98;46.12;95423.75;5006292;28;7523;-64
2023/01/01 10:56:02;;;;;;;;;;;;;;;20.03;46.02;95419.69;5005505;28;7558;-63
2023/01/01 10:58:34;;;;;;;;;;;;;;;20.06;46.01;95410.53;5002381;28;7519;-64
2023/01/01 11:01:02;;;;;;;;;;;;;;;20.04;46.06;95410.19;5007224;28;7535;-64
2023/01/01 11:03:29;;;;;;;;;;;;;;;20.02;46.23;95407.06;5004044;28;7534;-63
2023/01/01 11:06:04;;;;;;;;;;;;;;;20.00;45.85;95401.97;5004972;28;7535;-64
2023/01/01 11:08:32;;;;;;;;;;;;;;;19.99;45.33;95392.09;5006957;28;7567;-63
2023/01/01 11:11:00;;;;;;;;;;;;;;;20.14;40.93;95389.78;5006860;28;7538;-63
2023/01/01 11:13:28;;;;;;;;;;;;;;;20.00;35.71;95379.81;5009371;28;7980;-63
2023/01/01 11:15:55;;;;;;;;;;;;;;;19.93;33.71;95374.41;5006918;28;7561;-63
2023/01/01 11:18:21;;;;;;;;;;;;;;;19.86;32.50;95361.53;5006151;28;7554;-63
2023/01/01 11:20:53;;;;;;;;;;;;;;;19.82;32.14;95366.31;5006875;28;7539;-63
2023/01/01 11:23:27;;;;;;;;;;;;;;;19.73;31.54;95361.38;5006467;28;9609;-62
2023/01/01 11:26:04;;;;;;;;;;;;;;;19.66;31.70;95355.97;5003486;28;7543;-65
2023/01/01 11:28:33;;;;;;;;;;;;;;;19.57;36.27;95353.78;4997099;28;8338;-63
2023/01/01 11:31:03;;;;;;;;;;;;;;;19.55;38.05;95355.41;5011845;28;7538;-63
2023/01/01 11:33:32;;;;;;;;;;;;;;;19.59;39.29;95345.06;5006064;28;7936;-63
2023/01/01 11:35:58;;;;;;;;;;;;;;;19.61;40.16;95337.91;5008134;28;8026;-63
2023/01/01 11:38:25;;;;;;;;;;;;;;;19.64;41.20;95324.41;5002459;28;9708;-63
2023/01/01 11:41:01;;;;;;;;;;;;;;;19.69;41.69;95332.22;4992760;28;7871;-63
2023/01/01 11:43:31;;;;;;;;;;;;;;;19.70;42.30;95320.72;5011117;28;7756;-63
2023/01/01 11:45:58;;;;;;;;;;;;;;;19.71;42.69;95315.97;5003567;28;7600;-61
2023/01/01 11:48:27;;;;;;;;;;;;;;;19.72;43.14;95312.78;5005567;28;7604;-63
2023/01/01 11:50:55;;;;;;;;;;;;;;;19.72;44.15;95303.69;5012439;28;7527;-71
2023/01/01 11:53:21;;;;;;;;;;;;;;;19.73;46.49;95295.00;5007966;28;7703;-67
2023/01/01 11:56:01;;;;;;;;;;;;;;;19.72;46.51;95289.88;4999129;28;7578;-67
2023/01/01 11:58:46;;;;;;;;;;;;;;;19.84;45.33;95283.69;5010619;28;7652;-68
2023/01/01 12:01:23;;;;;;;;;;;;;;;19.92;44.37;95278.78;5010796;28;10747;-68
2023/01/01 12:03:56;;;;;;;;;;;;;;;19.95;44.29;95271.63;5010428;28;10101;-68
2023/01/01 12:06:29;;;;;;;;;;;;;;;19.96;44.57;95273.19;5011367;28;7644;-67
2023/01/01 12:08:56;;;;;;;;;;;;;;;19.96;44.36;95268.41;5009470;28;7535;-67
2023/01/01 12:11:30;;;;;;;;;;;;;;;19.95;44.01;95258.56;5009339;28;8122;-67
2023/01/01 12:14:00;;;;;;;;;;;;;;;19.94;43.82;95245.94;5010820;28;10974;-68
2023/01/01 12:16:27;;;;;;;;;;;;;;;19.92;43.59;95240.03;5011325;28;8315;-67
2023/01/01 12:19:17;;;;;;;;;;;;;;;19.90;44.10;95234.94;5011119;28;9480;-68
2023/01/01 12:21:45;;;;;;;;;;;;;;;19.88;44.46;95233.81;5010814;28;10553;-67
2023/01/01 12:24:18;;;;;;;;;;;;;;;19.87;44.48;95232.25;5011478;28;7639;-68
2023/01/01 12:27:04;;;;;;;;;;;;;;;19.87;44.42;95227.53;5012093;28;7550;-67
2023/01/01 12:29:42;;;;;;;;;;;;;;;19.86;44.30;95225.16;5010793;28;7535;-67
2023/01/01 12:32:27;;;;;;;;;;;;;;;19.87;44.55;95210.94;5009431;28;8265;-68
2023/01/01 12:35:12;;;;;;;;;;;;;;;19.85;44.78;95207.81;5009402;28;8428;-69
2023/01/01 12:37:55;;;;;;;;;;;;;;;19.85;44.88;95202.28;4993219;28;7757;-67
2023/01/01 12:40:34;;;;;;;;;;;;;;;19.85;45.12;95209.78;5011783;28;9358;-67
2023/01/01 12:43:11;;;;;;;;;;;;;;;19.84;45.17;95206.22;5009659;28;7543;-68
2023/01/01 12:45:56;;;;;;;;;;;;;;;19.83;45.07;95210.19;5009267;28;9384;-68
2023/01/01 12:48:26;;;;;;;;;;;;;;;19.81;45.47;95212.59;5010193;28;9704;-68
2023/01/01 12:50:52;;;;;;;;;;;;;;;19.79;45.49;95201.19;5007958;28;7545;-68
2023/01/01 12:53:47;;;;;;;;;;;;;;;19.79;45.43;95192.88;5002948;28;7562;-69
2023/01/01 12:56:19;;;;;;;;;;;;;;;19.79;45.31;95192.88;5006530;28;7542;-70
2023/01/01 12:58:50;;;;;;;;;;;;;;;19.76;42.54;95188.22;5004811;28;7620;-66
2023/01/01 13:01:21;;;;;;;;;;;;;;;19.76;44.48;95185.47;5007019;28;7565;-70
2023/01/01 13:03:50;;;;;;;;;;;;;;;19.76;44.75;95179.94;5003181;28;7557;-68
2023/01/01 13:06:19;;;;;;;;;;;;;;;19.78;44.86;95183.06;5006021;28;7538;-70
2023/01/01 13:08:59;;;;;;;;;;;;;;;19.80;45.02;95183.38;5009653;28;7554;-68
2023/01/01 13:11:27;;;;;;;;;;;;;;;19.78;45.15;95174.75;5005256;28;7557;-69